sensor_id;sensor_type;location;lat;lon;timestamp;P1;durP1;ratioP1;P2;durP2;ratioP2
35434;SDS011;21556;55.782;37.528;2024-02-23T00:02:10;41.37;;;23.97;;
35434;SDS011;21556;55.782;37.528;2024-02-23T00:04:37;39.17;;;24.20;;
35434;SDS011;21556;55.782;37.528;2024-02-23T00:07:03;40.00;;;23.83;;
35434;SDS011;21556;55.782;37.528;2024-02-23T00:09:32;37.43;;;22.90;;
35434;SDS011;21556;55.782;37.528;2024-02-23T00:11:58;39.47;;;23.30;;
35434;SDS011;21556;55.782;37.528;2024-02-23T00:14:34;39.23;;;23.47;;
35434;SDS011;21556;55.782;37.528;2024-02-23T00:17:10;43.23;;;25.83;;
35434;SDS011;21556;55.782;37.528;2024-02-23T00:19:37;42.37;;;25.70;;
35434;SDS011;21556;55.782;37.528;2024-02-23T00:22:05;38.17;;;20.40;;
35434;SDS011;21556;55.782;37.528;2024-02-23T00:24:32;41.77;;;25.13;;
35434;SDS011;21556;55.782;37.528;2024-02-23T00:27:03;38.00;;;22.50;;
35434;SDS011;21556;55.782;37.528;2024-02-23T00:29:30;38.07;;;23.30;;
35434;SDS011;21556;55.782;37.528;2024-02-23T00:31:57;40.67;;;23.07;;
35434;SDS011;21556;55.782;37.528;2024-02-23T00:34:26;40.50;;;24.23;;
35434;SDS011;21556;55.782;37.528;2024-02-23T00:36:55;43.57;;;25.70;;
35434;SDS011;21556;55.782;37.528;2024-02-23T00:39:22;44.70;;;25.07;;
35434;SDS011;21556;55.782;37.528;2024-02-23T00:44:17;42.13;;;23.33;;
35434;SDS011;21556;55.782;37.528;2024-02-23T00:46:43;41.57;;;24.17;;
35434;SDS011;21556;55.782;37.528;2024-02-23T00:49:09;39.17;;;23.83;;
35434;SDS011;21556;55.782;37.528;2024-02-23T00:51:37;43.20;;;24.80;;
35434;SDS011;21556;55.782;37.528;2024-02-23T00:54:06;34.50;;;17.27;;
35434;SDS011;21556;55.782;37.528;2024-02-23T00:56:34;37.20;;;22.03;;
35434;SDS011;21556;55.782;37.528;2024-02-23T00:59:03;36.90;;;22.13;;
35434;SDS011;21556;55.782;37.528;2024-02-23T01:01:32;39.37;;;23.13;;
35434;SDS011;21556;55.782;37.528;2024-02-23T01:04:04;38.50;;;23.60;;
35434;SDS011;21556;55.782;37.528;2024-02-23T01:06:33;38.77;;;22.23;;
35434;SDS011;21556;55.782;37.528;2024-02-23T01:09:02;38.03;;;22.30;;
35434;SDS011;21556;55.782;37.528;2024-02-23T01:11:30;33.78;;;21.77;;
35434;SDS011;21556;55.782;37.528;2024-02-23T01:14:01;38.80;;;22.47;;
35434;SDS011;21556;55.782;37.528;2024-02-23T01:16:27;40.53;;;22.50;;
35434;SDS011;21556;55.782;37.528;2024-02-23T01:18:54;37.37;;;22.47;;
35434;SDS011;21556;55.782;37.528;2024-02-23T01:21:20;38.30;;;21.77;;
35434;SDS011;21556;55.782;37.528;2024-02-23T01:23:47;36.40;;;21.43;;
35434;SDS011;21556;55.782;37.528;2024-02-23T01:26:13;38.07;;;23.40;;
35434;SDS011;21556;55.782;37.528;2024-02-23T01:28:40;34.60;;;20.40;;
35434;SDS011;21556;55.782;37.528;2024-02-23T01:31:09;39.63;;;21.27;;
35434;SDS011;21556;55.782;37.528;2024-02-23T01:33:39;36.20;;;20.47;;
35434;SDS011;21556;55.782;37.528;2024-02-23T01:36:08;36.67;;;22.00;;
35434;SDS011;21556;55.782;37.528;2024-02-23T01:38:37;34.87;;;21.30;;
35434;SDS011;21556;55.782;37.528;2024-02-23T01:41:04;35.40;;;19.90;;
35434;SDS011;21556;55.782;37.528;2024-02-23T01:43:38;34.60;;;19.70;;
35434;SDS011;21556;55.782;37.528;2024-02-23T01:46:05;35.50;;;21.37;;
35434;SDS011;21556;55.782;37.528;2024-02-23T01:48:34;34.47;;;19.87;;
35434;SDS011;21556;55.782;37.528;2024-02-23T01:51:00;34.10;;;18.40;;
35434;SDS011;21556;55.782;37.528;2024-02-23T01:53:32;35.93;;;20.00;;
35434;SDS011;21556;55.782;37.528;2024-02-23T01:55:58;31.03;;;18.17;;
35434;SDS011;21556;55.782;37.528;2024-02-23T01:58:25;34.00;;;20.77;;
35434;SDS011;21556;55.782;37.528;2024-02-23T02:03:20;28.57;;;17.97;;
35434;SDS011;21556;55.782;37.528;2024-02-23T02:05:46;32.93;;;18.87;;
35434;SDS011;21556;55.782;37.528;2024-02-23T02:08:12;33.47;;;19.03;;
35434;SDS011;21556;55.782;37.528;2024-02-23T02:10:38;31.30;;;19.23;;
35434;SDS011;21556;55.782;37.528;2024-02-23T02:13:05;31.37;;;19.50;;
35434;SDS011;21556;55.782;37.528;2024-02-23T02:15:34;34.17;;;20.93;;
35434;SDS011;21556;55.782;37.528;2024-02-23T02:18:02;32.73;;;20.53;;
35434;SDS011;21556;55.782;37.528;2024-02-23T02:20:29;37.30;;;20.93;;
35434;SDS011;21556;55.782;37.528;2024-02-23T02:23:02;30.93;;;18.97;;
35434;SDS011;21556;55.782;37.528;2024-02-23T02:25:29;32.72;;;20.25;;
35434;SDS011;21556;55.782;37.528;2024-02-23T02:27:55;35.47;;;20.20;;
35434;SDS011;21556;55.782;37.528;2024-02-23T02:30:24;37.43;;;22.20;;
35434;SDS011;21556;55.782;37.528;2024-02-23T02:32:58;39.00;;;22.57;;
35434;SDS011;21556;55.782;37.528;2024-02-23T02:35:24;34.40;;;20.57;;
35434;SDS011;21556;55.782;37.528;2024-02-23T02:37:51;37.17;;;21.47;;
35434;SDS011;21556;55.782;37.528;2024-02-23T02:40:21;33.07;;;19.20;;
35434;SDS011;21556;55.782;37.528;2024-02-23T02:42:47;38.47;;;22.17;;
35434;SDS011;21556;55.782;37.528;2024-02-23T02:45:13;34.90;;;20.80;;
35434;SDS011;21556;55.782;37.528;2024-02-23T02:47:41;38.37;;;21.17;;
35434;SDS011;21556;55.782;37.528;2024-02-23T02:50:08;34.80;;;19.87;;
35434;SDS011;21556;55.782;37.528;2024-02-23T02:52:34;40.53;;;22.20;;
35434;SDS011;21556;55.782;37.528;2024-02-23T02:55:00;38.53;;;20.90;;
35434;SDS011;21556;55.782;37.528;2024-02-23T02:57:27;39.10;;;21.63;;
35434;SDS011;21556;55.782;37.528;2024-02-23T02:59:53;36.80;;;19.83;;
35434;SDS011;21556;55.782;37.528;2024-02-23T03:02:19;34.33;;;18.47;;
35434;SDS011;21556;55.782;37.528;2024-02-23T03:04:51;35.47;;;20.83;;
35434;SDS011;21556;55.782;37.528;2024-02-23T03:07:19;36.17;;;21.47;;
35434;SDS011;21556;55.782;37.528;2024-02-23T03:09:48;37.40;;;22.40;;
35434;SDS011;21556;55.782;37.528;2024-02-23T03:12:16;30.83;;;17.13;;
35434;SDS011;21556;55.782;37.528;2024-02-23T03:14:45;27.77;;;14.67;;
35434;SDS011;21556;55.782;37.528;2024-02-23T03:17:12;36.63;;;20.57;;
35434;SDS011;21556;55.782;37.528;2024-02-23T03:19:38;35.57;;;20.03;;
35434;SDS011;21556;55.782;37.528;2024-02-23T03:22:05;36.70;;;20.40;;
35434;SDS011;21556;55.782;37.528;2024-02-23T03:24:34;39.37;;;21.13;;
35434;SDS011;21556;55.782;37.528;2024-02-23T03:27:01;36.50;;;20.50;;
35434;SDS011;21556;55.782;37.528;2024-02-23T03:29:27;34.90;;;21.47;;
35434;SDS011;21556;55.782;37.528;2024-02-23T03:31:56;35.40;;;20.53;;
35434;SDS011;21556;55.782;37.528;2024-02-23T03:34:22;36.43;;;20.47;;
35434;SDS011;21556;55.782;37.528;2024-02-23T03:36:48;38.63;;;20.40;;
35434;SDS011;21556;55.782;37.528;2024-02-23T03:39:14;35.47;;;20.47;;
35434;SDS011;21556;55.782;37.528;2024-02-23T03:41:40;38.30;;;18.83;;
35434;SDS011;21556;55.782;37.528;2024-02-23T03:44:07;38.97;;;20.33;;
35434;SDS011;21556;55.782;37.528;2024-02-23T03:46:33;35.33;;;20.57;;
35434;SDS011;21556;55.782;37.528;2024-02-23T03:49:02;40.03;;;21.00;;
35434;SDS011;21556;55.782;37.528;2024-02-23T03:51:29;36.63;;;20.37;;
35434;SDS011;21556;55.782;37.528;2024-02-23T03:56:24;35.10;;;19.53;;
35434;SDS011;21556;55.782;37.528;2024-02-23T03:58:50;38.63;;;17.97;;
35434;SDS011;21556;55.782;37.528;2024-02-23T04:01:16;39.97;;;20.60;;
35434;SDS011;21556;55.782;37.528;2024-02-23T04:03:43;38.97;;;19.87;;
35434;SDS011;21556;55.782;37.528;2024-02-23T04:06:08;38.83;;;20.20;;
35434;SDS011;21556;55.782;37.528;2024-02-23T04:08:35;40.73;;;22.07;;
35434;SDS011;21556;55.782;37.528;2024-02-23T04:11:01;39.23;;;20.40;;
35434;SDS011;21556;55.782;37.528;2024-02-23T04:13:30;38.90;;;19.60;;
35434;SDS011;21556;55.782;37.528;2024-02-23T04:15:56;39.37;;;19.13;;
35434;SDS011;21556;55.782;37.528;2024-02-23T04:18:28;39.30;;;20.60;;
35434;SDS011;21556;55.782;37.528;2024-02-23T04:20:57;39.60;;;20.87;;
35434;SDS011;21556;55.782;37.528;2024-02-23T04:23:23;36.37;;;19.73;;
35434;SDS011;21556;55.782;37.528;2024-02-23T04:25:52;31.27;;;15.00;;
35434;SDS011;21556;55.782;37.528;2024-02-23T04:28:22;40.27;;;19.30;;
35434;SDS011;21556;55.782;37.528;2024-02-23T04:30:50;39.13;;;20.60;;
35434;SDS011;21556;55.782;37.528;2024-02-23T04:33:20;36.80;;;19.63;;
35434;SDS011;21556;55.782;37.528;2024-02-23T04:35:48;40.80;;;20.33;;
35434;SDS011;21556;55.782;37.528;2024-02-23T04:38:15;38.40;;;20.03;;
35434;SDS011;21556;55.782;37.528;2024-02-23T04:40:43;40.58;;;20.52;;
35434;SDS011;21556;55.782;37.528;2024-02-23T04:43:09;44.43;;;21.47;;
35434;SDS011;21556;55.782;37.528;2024-02-23T04:45:45;40.63;;;19.40;;
35434;SDS011;21556;55.782;37.528;2024-02-23T04:48:12;40.80;;;21.50;;
35434;SDS011;21556;55.782;37.528;2024-02-23T04:50:38;42.97;;;21.63;;
35434;SDS011;21556;55.782;37.528;2024-02-23T04:53:07;43.43;;;20.33;;
35434;SDS011;21556;55.782;37.528;2024-02-23T04:55:36;40.53;;;21.37;;
35434;SDS011;21556;55.782;37.528;2024-02-23T04:58:03;42.50;;;19.53;;
35434;SDS011;21556;55.782;37.528;2024-02-23T05:00:29;38.37;;;19.90;;
35434;SDS011;21556;55.782;37.528;2024-02-23T05:03:06;37.67;;;20.90;;
35434;SDS011;21556;55.782;37.528;2024-02-23T05:05:42;39.50;;;20.53;;
35434;SDS011;21556;55.782;37.528;2024-02-23T05:08:11;45.90;;;22.67;;
35434;SDS011;21556;55.782;37.528;2024-02-23T05:10:41;43.73;;;21.07;;
35434;SDS011;21556;55.782;37.528;2024-02-23T05:13:10;38.03;;;19.07;;
35434;SDS011;21556;55.782;37.528;2024-02-23T05:15:37;44.60;;;20.27;;
35434;SDS011;21556;55.782;37.528;2024-02-23T05:18:03;44.70;;;19.97;;
35434;SDS011;21556;55.782;37.528;2024-02-23T05:20:29;46.00;;;20.67;;
35434;SDS011;21556;55.782;37.528;2024-02-23T05:22:56;38.07;;;18.77;;
35434;SDS011;21556;55.782;37.528;2024-02-23T05:25:22;44.70;;;21.13;;
35434;SDS011;21556;55.782;37.528;2024-02-23T05:27:48;38.03;;;20.27;;
35434;SDS011;21556;55.782;37.528;2024-02-23T05:30:14;44.63;;;21.30;;
35434;SDS011;21556;55.782;37.528;2024-02-23T05:32:40;36.60;;;20.27;;
35434;SDS011;21556;55.782;37.528;2024-02-23T05:35:06;38.60;;;19.90;;
35434;SDS011;21556;55.782;37.528;2024-02-23T05:37:32;43.63;;;21.37;;
35434;SDS011;21556;55.782;37.528;2024-02-23T05:39:58;42.80;;;21.17;;
35434;SDS011;21556;55.782;37.528;2024-02-23T05:42:25;33.30;;;15.40;;
35434;SDS011;21556;55.782;37.528;2024-02-23T05:44:56;41.53;;;20.23;;
35434;SDS011;21556;55.782;37.528;2024-02-23T05:47:22;45.67;;;20.70;;
35434;SDS011;21556;55.782;37.528;2024-02-23T05:49:49;28.80;;;12.90;;
35434;SDS011;21556;55.782;37.528;2024-02-23T05:52:16;44.33;;;20.33;;
35434;SDS011;21556;55.782;37.528;2024-02-23T05:54:42;40.90;;;20.73;;
35434;SDS011;21556;55.782;37.528;2024-02-23T05:57:08;36.43;;;20.37;;
35434;SDS011;21556;55.782;37.528;2024-02-23T05:59:36;38.63;;;19.48;;
35434;SDS011;21556;55.782;37.528;2024-02-23T06:02:02;38.73;;;21.03;;
35434;SDS011;21556;55.782;37.528;2024-02-23T06:04:31;39.67;;;22.07;;
35434;SDS011;21556;55.782;37.528;2024-02-23T06:06:57;36.87;;;15.43;;
35434;SDS011;21556;55.782;37.528;2024-02-23T06:09:23;38.80;;;19.80;;
35434;SDS011;21556;55.782;37.528;2024-02-23T06:11:49;35.73;;;18.77;;
35434;SDS011;21556;55.782;37.528;2024-02-23T06:14:16;38.50;;;20.30;;
35434;SDS011;21556;55.782;37.528;2024-02-23T06:16:42;40.33;;;19.10;;
35434;SDS011;21556;55.782;37.528;2024-02-23T06:19:08;36.30;;;20.73;;
35434;SDS011;21556;55.782;37.528;2024-02-23T06:24:02;36.90;;;20.27;;
35434;SDS011;21556;55.782;37.528;2024-02-23T06:26:29;43.70;;;20.50;;
35434;SDS011;21556;55.782;37.528;2024-02-23T06:28:55;41.60;;;20.50;;
35434;SDS011;21556;55.782;37.528;2024-02-23T06:31:21;41.20;;;20.97;;
35434;SDS011;21556;55.782;37.528;2024-02-23T06:33:50;37.37;;;20.13;;
35434;SDS011;21556;55.782;37.528;2024-02-23T06:36:19;35.47;;;17.90;;
35434;SDS011;21556;55.782;37.528;2024-02-23T06:38:45;39.50;;;18.73;;
35434;SDS011;21556;55.782;37.528;2024-02-23T06:41:11;44.00;;;19.13;;
35434;SDS011;21556;55.782;37.528;2024-02-23T06:43:37;42.00;;;20.47;;
35434;SDS011;21556;55.782;37.528;2024-02-23T06:46:05;40.30;;;20.43;;
35434;SDS011;21556;55.782;37.528;2024-02-23T06:48:45;41.20;;;20.20;;
35434;SDS011;21556;55.782;37.528;2024-02-23T06:51:11;42.83;;;22.33;;
35434;SDS011;21556;55.782;37.528;2024-02-23T06:53:40;35.23;;;18.87;;
35434;SDS011;21556;55.782;37.528;2024-02-23T06:56:28;36.27;;;20.50;;
35434;SDS011;21556;55.782;37.528;2024-02-23T06:59:05;36.17;;;18.27;;
35434;SDS011;21556;55.782;37.528;2024-02-23T07:01:34;38.33;;;21.37;;
35434;SDS011;21556;55.782;37.528;2024-02-23T07:04:01;29.80;;;16.55;;
35434;SDS011;21556;55.782;37.528;2024-02-23T07:06:31;39.60;;;18.33;;
35434;SDS011;21556;55.782;37.528;2024-02-23T07:09:00;44.97;;;22.07;;
35434;SDS011;21556;55.782;37.528;2024-02-23T07:11:27;38.27;;;19.63;;
35434;SDS011;21556;55.782;37.528;2024-02-23T07:13:55;38.80;;;20.30;;
35434;SDS011;21556;55.782;37.528;2024-02-23T07:16:21;37.33;;;19.73;;
35434;SDS011;21556;55.782;37.528;2024-02-23T07:18:47;36.70;;;20.40;;
35434;SDS011;21556;55.782;37.528;2024-02-23T07:21:19;39.97;;;20.63;;
35434;SDS011;21556;55.782;37.528;2024-02-23T07:23:45;40.13;;;20.50;;
35434;SDS011;21556;55.782;37.528;2024-02-23T07:26:11;42.37;;;21.40;;
35434;SDS011;21556;55.782;37.528;2024-02-23T07:28:37;36.10;;;19.73;;
35434;SDS011;21556;55.782;37.528;2024-02-23T07:31:04;32.70;;;19.10;;
35434;SDS011;21556;55.782;37.528;2024-02-23T07:33:30;38.70;;;19.77;;
35434;SDS011;21556;55.782;37.528;2024-02-23T07:35:56;36.53;;;20.47;;
35434;SDS011;21556;55.782;37.528;2024-02-23T07:38:26;40.87;;;20.03;;
35434;SDS011;21556;55.782;37.528;2024-02-23T07:40:53;37.83;;;21.00;;
35434;SDS011;21556;55.782;37.528;2024-02-23T07:43:19;35.87;;;20.27;;
35434;SDS011;21556;55.782;37.528;2024-02-23T07:45:45;41.60;;;20.40;;
35434;SDS011;21556;55.782;37.528;2024-02-23T07:48:15;41.90;;;20.67;;
35434;SDS011;21556;55.782;37.528;2024-02-23T07:50:44;42.67;;;21.50;;
35434;SDS011;21556;55.782;37.528;2024-02-23T07:53:14;39.17;;;20.47;;
35434;SDS011;21556;55.782;37.528;2024-02-23T07:55:40;39.13;;;20.17;;
35434;SDS011;21556;55.782;37.528;2024-02-23T07:58:09;35.03;;;18.57;;
35434;SDS011;21556;55.782;37.528;2024-02-23T08:00:35;37.07;;;21.63;;
35434;SDS011;21556;55.782;37.528;2024-02-23T08:03:04;32.85;;;19.77;;
35434;SDS011;21556;55.782;37.528;2024-02-23T08:05:30;40.10;;;19.67;;
35434;SDS011;21556;55.782;37.528;2024-02-23T08:08:01;39.47;;;20.27;;
35434;SDS011;21556;55.782;37.528;2024-02-23T08:10:37;34.73;;;18.23;;
35434;SDS011;21556;55.782;37.528;2024-02-23T08:13:03;32.97;;;19.70;;
35434;SDS011;21556;55.782;37.528;2024-02-23T08:15:29;38.07;;;19.20;;
35434;SDS011;21556;55.782;37.528;2024-02-23T08:17:58;33.93;;;18.63;;
35434;SDS011;21556;55.782;37.528;2024-02-23T08:20:24;32.07;;;18.57;;
35434;SDS011;21556;55.782;37.528;2024-02-23T08:22:50;40.57;;;20.13;;
35434;SDS011;21556;55.782;37.528;2024-02-23T08:25:35;36.20;;;18.83;;
35434;SDS011;21556;55.782;37.528;2024-02-23T08:28:02;28.27;;;16.15;;
35434;SDS011;21556;55.782;37.528;2024-02-23T08:30:30;32.23;;;18.40;;
35434;SDS011;21556;55.782;37.528;2024-02-23T08:32:56;35.08;;;19.10;;
35434;SDS011;21556;55.782;37.528;2024-02-23T08:35:26;36.33;;;18.83;;
35434;SDS011;21556;55.782;37.528;2024-02-23T08:37:52;33.53;;;18.37;;
35434;SDS011;21556;55.782;37.528;2024-02-23T08:40:18;34.13;;;18.77;;
35434;SDS011;21556;55.782;37.528;2024-02-23T08:42:44;37.27;;;18.93;;
35434;SDS011;21556;55.782;37.528;2024-02-23T08:45:15;35.63;;;19.47;;
35434;SDS011;21556;55.782;37.528;2024-02-23T08:47:41;40.57;;;19.20;;
35434;SDS011;21556;55.782;37.528;2024-02-23T08:50:23;33.63;;;18.77;;
35434;SDS011;21556;55.782;37.528;2024-02-23T08:52:49;34.70;;;19.33;;
35434;SDS011;21556;55.782;37.528;2024-02-23T08:55:17;37.92;;;20.15;;
35434;SDS011;21556;55.782;37.528;2024-02-23T08:57:44;33.87;;;19.07;;
35434;SDS011;21556;55.782;37.528;2024-02-23T09:00:10;37.60;;;19.80;;
35434;SDS011;21556;55.782;37.528;2024-02-23T09:02:37;31.63;;;18.00;;
35434;SDS011;21556;55.782;37.528;2024-02-23T09:05:04;31.03;;;17.93;;
35434;SDS011;21556;55.782;37.528;2024-02-23T09:07:30;35.83;;;18.30;;
35434;SDS011;21556;55.782;37.528;2024-02-23T09:09:56;33.70;;;17.60;;
35434;SDS011;21556;55.782;37.528;2024-02-23T09:12:23;31.97;;;16.87;;
35434;SDS011;21556;55.782;37.528;2024-02-23T09:14:49;40.17;;;19.67;;
35434;SDS011;21556;55.782;37.528;2024-02-23T09:17:15;35.27;;;16.20;;
35434;SDS011;21556;55.782;37.528;2024-02-23T09:19:41;24.87;;;13.53;;
35434;SDS011;21556;55.782;37.528;2024-02-23T09:22:07;32.23;;;16.93;;
35434;SDS011;21556;55.782;37.528;2024-02-23T09:24:33;26.10;;;14.37;;
35434;SDS011;21556;55.782;37.528;2024-02-23T09:27:00;32.03;;;17.77;;
35434;SDS011;21556;55.782;37.528;2024-02-23T09:29:49;32.93;;;17.67;;
35434;SDS011;21556;55.782;37.528;2024-02-23T09:32:18;29.83;;;16.87;;
35434;SDS011;21556;55.782;37.528;2024-02-23T09:34:44;33.63;;;17.47;;
35434;SDS011;21556;55.782;37.528;2024-02-23T09:37:13;34.10;;;18.47;;
35434;SDS011;21556;55.782;37.528;2024-02-23T09:39:39;32.80;;;17.03;;
35434;SDS011;21556;55.782;37.528;2024-02-23T09:42:07;34.70;;;18.67;;
35434;SDS011;21556;55.782;37.528;2024-02-23T09:44:36;32.57;;;17.60;;
35434;SDS011;21556;55.782;37.528;2024-02-23T09:47:03;32.27;;;17.60;;
35434;SDS011;21556;55.782;37.528;2024-02-23T09:49:37;33.93;;;18.73;;
35434;SDS011;21556;55.782;37.528;2024-02-23T09:52:11;29.23;;;16.63;;
35434;SDS011;21556;55.782;37.528;2024-02-23T09:54:40;30.67;;;16.13;;
35434;SDS011;21556;55.782;37.528;2024-02-23T09:57:09;34.87;;;17.17;;
35434;SDS011;21556;55.782;37.528;2024-02-23T09:59:36;35.27;;;20.80;;
35434;SDS011;21556;55.782;37.528;2024-02-23T10:02:06;34.77;;;16.93;;
35434;SDS011;21556;55.782;37.528;2024-02-23T10:04:36;30.00;;;17.90;;
35434;SDS011;21556;55.782;37.528;2024-02-23T10:07:02;31.03;;;18.47;;
35434;SDS011;21556;55.782;37.528;2024-02-23T10:09:30;23.85;;;11.82;;
35434;SDS011;21556;55.782;37.528;2024-02-23T10:14:24;25.50;;;14.50;;
35434;SDS011;21556;55.782;37.528;2024-02-23T10:16:51;31.60;;;15.70;;
35434;SDS011;21556;55.782;37.528;2024-02-23T10:19:19;31.83;;;16.33;;
35434;SDS011;21556;55.782;37.528;2024-02-23T10:21:46;30.87;;;18.20;;
35434;SDS011;21556;55.782;37.528;2024-02-23T10:24:13;31.30;;;17.77;;
35434;SDS011;21556;55.782;37.528;2024-02-23T10:26:41;32.80;;;17.27;;
35434;SDS011;21556;55.782;37.528;2024-02-23T10:29:10;39.03;;;17.77;;
35434;SDS011;21556;55.782;37.528;2024-02-23T10:31:40;33.37;;;17.60;;
35434;SDS011;21556;55.782;37.528;2024-02-23T10:34:08;33.03;;;19.27;;
35434;SDS011;21556;55.782;37.528;2024-02-23T10:36:40;36.10;;;18.50;;
35434;SDS011;21556;55.782;37.528;2024-02-23T10:39:13;31.40;;;17.57;;
35434;SDS011;21556;55.782;37.528;2024-02-23T10:46:57;35.50;;;19.07;;
35434;SDS011;21556;55.782;37.528;2024-02-23T10:49:28;35.73;;;18.93;;
35434;SDS011;21556;55.782;37.528;2024-02-23T10:51:56;36.65;;;18.77;;
35434;SDS011;21556;55.782;37.528;2024-02-23T10:54:23;35.80;;;18.20;;
35434;SDS011;21556;55.782;37.528;2024-02-23T10:56:50;24.50;;;12.60;;
35434;SDS011;21556;55.782;37.528;2024-02-23T10:59:17;29.98;;;17.35;;
35434;SDS011;21556;55.782;37.528;2024-02-23T11:01:48;33.47;;;19.03;;
35434;SDS011;21556;55.782;37.528;2024-02-23T11:04:16;40.13;;;20.17;;
35434;SDS011;21556;55.782;37.528;2024-02-23T11:06:48;35.23;;;20.00;;
35434;SDS011;21556;55.782;37.528;2024-02-23T11:09:15;33.50;;;17.43;;
35434;SDS011;21556;55.782;37.528;2024-02-23T11:11:55;40.77;;;18.83;;
35434;SDS011;21556;55.782;37.528;2024-02-23T11:14:35;39.27;;;19.93;;
35434;SDS011;21556;55.782;37.528;2024-02-23T11:17:02;40.77;;;19.87;;
35434;SDS011;21556;55.782;37.528;2024-02-23T11:19:35;38.37;;;19.33;;
35434;SDS011;21556;55.782;37.528;2024-02-23T11:22:03;39.07;;;19.80;;
35434;SDS011;21556;55.782;37.528;2024-02-23T11:24:30;35.67;;;18.60;;
35434;SDS011;21556;55.782;37.528;2024-02-23T11:26:57;38.05;;;19.10;;
35434;SDS011;21556;55.782;37.528;2024-02-23T11:29:34;36.27;;;18.10;;
35434;SDS011;21556;55.782;37.528;2024-02-23T11:32:02;33.00;;;19.85;;
35434;SDS011;21556;55.782;37.528;2024-02-23T11:34:29;32.27;;;17.43;;
35434;SDS011;21556;55.782;37.528;2024-02-23T11:36:56;33.70;;;18.83;;
35434;SDS011;21556;55.782;37.528;2024-02-23T11:39:24;35.30;;;18.67;;
35434;SDS011;21556;55.782;37.528;2024-02-23T11:41:53;38.30;;;18.67;;
35434;SDS011;21556;55.782;37.528;2024-02-23T11:44:19;35.87;;;20.90;;
35434;SDS011;21556;55.782;37.528;2024-02-23T11:46:52;38.07;;;18.87;;
35434;SDS011;21556;55.782;37.528;2024-02-23T11:49:18;37.33;;;18.50;;
35434;SDS011;21556;55.782;37.528;2024-02-23T11:51:50;37.13;;;19.43;;
35434;SDS011;21556;55.782;37.528;2024-02-23T11:58:39;36.60;;;18.80;;
35434;SDS011;21556;55.782;37.528;2024-02-23T12:01:10;37.70;;;19.53;;
35434;SDS011;21556;55.782;37.528;2024-02-23T12:03:42;39.13;;;17.93;;
35434;SDS011;21556;55.782;37.528;2024-02-23T12:06:09;37.35;;;18.27;;
35434;SDS011;21556;55.782;37.528;2024-02-23T12:08:52;36.33;;;19.77;;
35434;SDS011;21556;55.782;37.528;2024-02-23T12:11:19;39.03;;;18.93;;
35434;SDS011;21556;55.782;37.528;2024-02-23T12:13:47;37.13;;;19.47;;
35434;SDS011;21556;55.782;37.528;2024-02-23T12:16:14;36.37;;;19.27;;
35434;SDS011;21556;55.782;37.528;2024-02-23T12:18:40;39.23;;;19.47;;
35434;SDS011;21556;55.782;37.528;2024-02-23T12:21:07;37.53;;;19.20;;
35434;SDS011;21556;55.782;37.528;2024-02-23T12:23:46;39.50;;;19.10;;
35434;SDS011;21556;55.782;37.528;2024-02-23T12:26:17;35.27;;;18.57;;
35434;SDS011;21556;55.782;37.528;2024-02-23T12:28:46;41.37;;;20.07;;
35434;SDS011;21556;55.782;37.528;2024-02-23T12:31:16;48.30;;;20.20;;
35434;SDS011;21556;55.782;37.528;2024-02-23T12:33:49;42.30;;;18.53;;
35434;SDS011;21556;55.782;37.528;2024-02-23T12:36:18;49.30;;;21.30;;
35434;SDS011;21556;55.782;37.528;2024-02-23T12:38:48;43.10;;;19.87;;
35434;SDS011;21556;55.782;37.528;2024-02-23T12:41:15;43.60;;;21.33;;
35434;SDS011;21556;55.782;37.528;2024-02-23T12:43:41;37.67;;;19.50;;
35434;SDS011;21556;55.782;37.528;2024-02-23T12:46:10;42.93;;;20.63;;
35434;SDS011;21556;55.782;37.528;2024-02-23T12:48:42;43.87;;;19.73;;
35434;SDS011;21556;55.782;37.528;2024-02-23T12:51:10;41.53;;;20.70;;
35434;SDS011;21556;55.782;37.528;2024-02-23T12:53:38;45.97;;;20.90;;
35434;SDS011;21556;55.782;37.528;2024-02-23T12:56:06;40.65;;;20.58;;
35434;SDS011;21556;55.782;37.528;2024-02-23T12:58:41;44.20;;;21.57;;
35434;SDS011;21556;55.782;37.528;2024-02-23T13:01:08;45.63;;;22.43;;
35434;SDS011;21556;55.782;37.528;2024-02-23T13:03:35;50.23;;;23.73;;
35434;SDS011;21556;55.782;37.528;2024-02-23T13:06:04;47.10;;;22.27;;
35434;SDS011;21556;55.782;37.528;2024-02-23T13:08:30;45.77;;;20.70;;
35434;SDS011;21556;55.782;37.528;2024-02-23T13:10:57;46.50;;;22.43;;
35434;SDS011;21556;55.782;37.528;2024-02-23T13:13:26;53.10;;;21.90;;
35434;SDS011;21556;55.782;37.528;2024-02-23T13:15:53;42.60;;;21.93;;
35434;SDS011;21556;55.782;37.528;2024-02-23T13:18:19;43.87;;;21.33;;
35434;SDS011;21556;55.782;37.528;2024-02-23T13:20:46;45.87;;;20.93;;
35434;SDS011;21556;55.782;37.528;2024-02-23T13:23:12;52.20;;;22.63;;
35434;SDS011;21556;55.782;37.528;2024-02-23T13:25:41;48.17;;;23.17;;
35434;SDS011;21556;55.782;37.528;2024-02-23T13:28:39;47.23;;;22.07;;
35434;SDS011;21556;55.782;37.528;2024-02-23T13:37:53;46.70;;;22.53;;
35434;SDS011;21556;55.782;37.528;2024-02-23T13:40:20;55.60;;;22.77;;
35434;SDS011;21556;55.782;37.528;2024-02-23T13:43:14;59.57;;;23.50;;
35434;SDS011;21556;55.782;37.528;2024-02-23T13:45:51;50.90;;;23.40;;
35434;SDS011;21556;55.782;37.528;2024-02-23T13:48:22;52.70;;;24.03;;
35434;SDS011;21556;55.782;37.528;2024-02-23T13:50:50;49.35;;;24.00;;
35434;SDS011;21556;55.782;37.528;2024-02-23T13:53:22;52.00;;;23.87;;
35434;SDS011;21556;55.782;37.528;2024-02-23T13:55:51;57.70;;;23.97;;
35434;SDS011;21556;55.782;37.528;2024-02-23T13:58:23;50.73;;;23.30;;
35434;SDS011;21556;55.782;37.528;2024-02-23T14:00:50;56.03;;;24.60;;
35434;SDS011;21556;55.782;37.528;2024-02-23T14:03:19;43.53;;;20.30;;
35434;SDS011;21556;55.782;37.528;2024-02-23T14:05:48;58.03;;;24.83;;
35434;SDS011;21556;55.782;37.528;2024-02-23T14:08:14;53.87;;;24.53;;
35434;SDS011;21556;55.782;37.528;2024-02-23T14:10:40;51.13;;;25.83;;
35434;SDS011;21556;55.782;37.528;2024-02-23T14:13:16;56.87;;;25.37;;
35434;SDS011;21556;55.782;37.528;2024-02-23T14:15:50;54.70;;;24.17;;
35434;SDS011;21556;55.782;37.528;2024-02-23T14:18:16;55.03;;;23.53;;
35434;SDS011;21556;55.782;37.528;2024-02-23T14:20:43;45.00;;;19.47;;
35434;SDS011;21556;55.782;37.528;2024-02-23T14:25:57;51.53;;;23.63;;
35434;SDS011;21556;55.782;37.528;2024-02-23T14:28:23;53.37;;;25.50;;
35434;SDS011;21556;55.782;37.528;2024-02-23T14:30:52;54.70;;;25.10;;
35434;SDS011;21556;55.782;37.528;2024-02-23T14:33:21;39.07;;;16.30;;
35434;SDS011;21556;55.782;37.528;2024-02-23T14:35:48;54.17;;;25.97;;
35434;SDS011;21556;55.782;37.528;2024-02-23T14:38:15;53.07;;;24.67;;
35434;SDS011;21556;55.782;37.528;2024-02-23T14:40:42;62.13;;;26.90;;
35434;SDS011;21556;55.782;37.528;2024-02-23T14:43:08;57.40;;;25.07;;
35434;SDS011;21556;55.782;37.528;2024-02-23T14:45:40;55.03;;;25.93;;
35434;SDS011;21556;55.782;37.528;2024-02-23T14:48:09;57.70;;;25.40;;